Terminal Aerodrome Forecast
Issued by NWS

Home | Current Version | Previous Version | Text Only | Print | Product List | Glossary On
Versions: 1 2 3 4 5 6 7 8 9 10 11 12 13 14
954
FTUS43 KLSX 212012 AAA
TAFSUS
TAF AMD
KSUS 212012Z 2120/2218 25012G18KT P6SM FEW060
     FM220100 VRB04KT P6SM FEW250
     FM221500 24012G18KT P6SM SCT250=

USA.gov is the U.S. government's official web portal to all federal, state and local government web resources and services.